Time;durP1;ratioP1;P1;durP2;ratioP2;P2;SDS_P1;SDS_P2;PMS_P1;PMS_P2;Temp;Humidity;BMP_temperature;BMP_pressure;BME280_temperature;BME280_humidity;BME280_pressure;Samples;Min_cycle;Max_cycle;Signal;HPM_P1;HPM_P2
2022/03/01 00:01:58;;;;;;;32.03;14.35;;;3.90;88.30;;;;;;4993015;28;20046;-70
2022/03/01 00:04:24;;;;;;;26.38;12.15;;;3.90;88.70;;;;;;4993037;28;20026;-70
2022/03/01 00:06:50;;;;;;;34.80;14.38;;;3.80;88.70;;;;;;5012734;28;20432;-71
2022/03/01 00:09:15;;;;;;;30.17;13.30;;;3.90;88.90;;;;;;5014942;28;20045;-70
2022/03/01 00:11:41;;;;;;;31.25;12.80;;;3.80;88.40;;;;;;5014452;28;20041;-70
2022/03/01 00:14:06;;;;;;;30.08;12.82;;;3.90;88.50;;;;;;5014793;28;20033;-70
2022/03/01 00:16:32;;;;;;;30.60;12.68;;;3.80;88.10;;;;;;5014343;28;20026;-70
2022/03/01 00:18:58;;;;;;;34.90;13.60;;;3.80;88.30;;;;;;4996950;28;20041;-70
2022/03/01 00:21:28;;;;;;;30.67;12.50;;;3.70;88.50;;;;;;5014700;28;20018;-70
2022/03/01 00:23:55;;;;;;;31.80;13.70;;;3.70;88.20;;;;;;5014320;28;20030;-70
2022/03/01 00:26:21;;;;;;;33.70;14.07;;;3.70;88.60;;;;;;5014167;28;20041;-70
2022/03/01 00:28:46;;;;;;;29.23;12.25;;;3.70;88.60;;;;;;5014404;28;20030;-69
2022/03/01 00:31:12;;;;;;;27.40;13.10;;;3.70;88.70;;;;;;5014139;28;20037;-69
2022/03/01 00:33:38;;;;;;;31.13;13.35;;;3.60;89.00;;;;;;4996607;28;20030;-69
2022/03/01 00:36:07;;;;;;;33.67;14.55;;;3.60;88.60;;;;;;4993672;28;20088;-70
2022/03/01 00:38:32;;;;;;;33.05;13.32;;;3.60;88.60;;;;;;4994344;28;20030;-71
2022/03/01 00:40:58;;;;;;;26.98;12.63;;;3.60;88.80;;;;;;4993133;28;20041;-70
2022/03/01 00:43:24;;;;;;;31.85;14.27;;;3.60;88.30;;;;;;4994251;28;20031;-69
2022/03/01 00:45:51;;;;;;;36.70;13.82;;;3.60;89.00;;;;;;4994194;28;20112;-69
2022/03/01 00:48:17;;;;;;;27.05;11.70;;;3.60;89.30;;;;;;4994618;28;20037;-70
2022/03/01 00:50:42;;;;;;;32.55;13.63;;;3.50;88.90;;;;;;4994595;28;20042;-70
2022/03/01 00:53:08;;;;;;;27.67;12.20;;;3.50;89.20;;;;;;4993954;28;20022;-70
2022/03/01 00:55:34;;;;;;;30.67;12.70;;;3.50;89.60;;;;;;4994019;28;20124;-70
2022/03/01 00:58:00;;;;;;;34.28;12.95;;;3.60;89.50;;;;;;4993983;28;20026;-70
2022/03/01 01:00:27;;;;;;;28.90;11.98;;;3.50;89.60;;;;;;4993319;28;20125;-69
2022/03/01 01:02:53;;;;;;;31.17;12.65;;;3.50;89.20;;;;;;4993868;28;20121;-71
2022/03/01 01:05:18;;;;;;;31.40;11.75;;;3.50;89.70;;;;;;4993781;28;20113;-69
2022/03/01 01:07:44;;;;;;;28.63;11.77;;;3.40;89.70;;;;;;4993778;28;20038;-68
2022/03/01 01:10:10;;;;;;;28.40;12.52;;;3.40;89.80;;;;;;4993664;28;20436;-69
2022/03/01 01:12:36;;;;;;;30.70;12.40;;;3.30;89.30;;;;;;4993731;28;20109;-68
2022/03/01 01:15:04;;;;;;;25.92;11.20;;;3.20;89.50;;;;;;4993975;28;20101;-70
2022/03/01 01:17:29;;;;;;;25.85;12.23;;;3.20;90.00;;;;;;4992682;28;20034;-71
2022/03/01 01:19:55;;;;;;;27.80;12.00;;;3.20;89.60;;;;;;4993692;28;20039;-71
2022/03/01 01:25:06;;;;;;;27.25;11.25;;;3.10;90.00;;;;;;4993385;28;20042;-70
2022/03/01 01:27:31;;;;;;;26.15;11.15;;;3.10;89.80;;;;;;4993724;28;20046;-70
2022/03/01 01:29:57;;;;;;;26.73;10.95;;;3.10;89.00;;;;;;4993350;28;20353;-70
2022/03/01 01:32:22;;;;;;;23.48;11.15;;;3.10;89.30;;;;;;4993277;28;20073;-71
2022/03/01 01:34:48;;;;;;;21.27;9.77;;;3.00;88.90;;;;;;4993493;28;20058;-70
2022/03/01 01:37:14;;;;;;;23.08;10.25;;;3.00;89.10;;;;;;5010917;28;20045;-70
2022/03/01 01:39:39;;;;;;;23.27;10.00;;;3.00;88.60;;;;;;5012688;28;20022;-69
2022/03/01 01:42:05;;;;;;;24.15;9.98;;;3.00;88.20;;;;;;5013032;28;20026;-70
2022/03/01 01:44:32;;;;;;;24.35;10.63;;;3.10;88.30;;;;;;5012778;28;20133;-70
2022/03/01 01:46:58;;;;;;;24.92;9.80;;;3.10;88.00;;;;;;5012586;28;20060;-70
2022/03/01 01:49:24;;;;;;;25.52;9.95;;;3.10;87.40;;;;;;5012558;28;20034;-70
2022/03/01 01:51:50;;;;;;;24.63;9.30;;;3.20;87.40;;;;;;5012524;28;20444;-70
2022/03/01 01:54:16;;;;;;;21.52;10.27;;;3.10;87.50;;;;;;5012898;28;20360;-69
2022/03/01 01:56:41;;;;;;;28.15;10.27;;;3.10;87.20;;;;;;4994979;28;20041;-71
2022/03/01 01:59:07;;;;;;;24.67;10.18;;;3.00;87.20;;;;;;5012434;28;20041;-71
2022/03/01 02:01:32;;;;;;;25.80;9.90;;;3.10;87.50;;;;;;5012465;28;20428;-71
2022/03/01 02:04:01;;;;;;;22.20;9.25;;;3.00;87.00;;;;;;4994927;28;20030;-70
2022/03/01 02:06:28;;;;;;;23.08;10.13;;;3.00;87.60;;;;;;5012631;28;20030;-70
2022/03/01 02:08:53;;;;;;;25.23;9.55;;;3.10;88.00;;;;;;5012231;28;20030;-69
2022/03/01 02:11:19;;;;;;;26.30;10.95;;;3.00;88.30;;;;;;4994767;28;20033;-71
2022/03/01 02:13:44;;;;;;;27.77;9.70;;;3.00;88.00;;;;;;5012014;28;20030;-71
2022/03/01 02:16:10;;;;;;;22.10;9.73;;;2.90;87.80;;;;;;5012372;28;20044;-71
2022/03/01 02:18:36;;;;;;;22.90;9.48;;;3.00;87.90;;;;;;5011910;28;20037;-71
2022/03/01 02:21:05;;;;;;;24.73;9.60;;;3.00;87.50;;;;;;5012441;28;20030;-69
2022/03/01 02:23:31;;;;;;;20.58;9.45;;;2.90;87.30;;;;;;5011911;28;20579;-69
2022/03/01 02:25:56;;;;;;;21.90;9.48;;;2.90;87.10;;;;;;5011870;28;20120;-70
2022/03/01 02:28:22;;;;;;;21.67;9.45;;;2.90;87.70;;;;;;5011905;28;20057;-70
2022/03/01 02:30:47;;;;;;;22.13;9.80;;;2.90;88.10;;;;;;5011853;28;20046;-70
2022/03/01 02:33:13;;;;;;;20.80;9.52;;;2.80;88.50;;;;;;5012226;28;20097;-71
2022/03/01 02:35:38;;;;;;;20.77;8.30;;;3.00;88.70;;;;;;5018173;28;20124;-70
2022/03/01 02:38:05;;;;;;;25.45;8.65;;;2.90;88.20;;;;;;5031398;28;20057;-70
2022/03/01 02:40:30;;;;;;;24.52;10.93;;;2.80;87.60;;;;;;5031551;28;20128;-69
2022/03/01 02:42:56;;;;;;;23.60;8.93;;;2.80;88.60;;;;;;5031416;28;20112;-69
2022/03/01 02:45:22;;;;;;;27.52;9.23;;;2.80;88.70;;;;;;5032133;28;20439;-69
2022/03/01 02:47:48;;;;;;;22.17;9.32;;;2.80;87.50;;;;;;5031471;28;20053;-70
2022/03/01 02:50:15;;;;;;;25.95;10.10;;;2.90;87.90;;;;;;5031094;28;20052;-70
2022/03/01 02:52:41;;;;;;;24.27;9.52;;;2.80;88.10;;;;;;5013666;28;20105;-70
2022/03/01 02:55:07;;;;;;;25.83;9.13;;;2.90;88.30;;;;;;5031201;28;20166;-71
2022/03/01 02:57:33;;;;;;;21.98;9.40;;;2.90;88.30;;;;;;5031497;28;20067;-70
2022/03/01 02:59:59;;;;;;;23.63;9.60;;;2.90;88.40;;;;;;5031099;28;20372;-70
2022/03/01 03:02:24;;;;;;;19.92;8.98;;;2.90;88.30;;;;;;5031053;28;20030;-70
2022/03/01 03:04:50;;;;;;;20.60;8.70;;;2.80;88.60;;;;;;5030876;28;20379;-71
2022/03/01 03:07:15;;;;;;;21.83;9.43;;;2.80;88.60;;;;;;5030893;28;20053;-71
2022/03/01 03:09:41;;;;;;;19.60;8.90;;;2.80;89.50;;;;;;5030912;28;20040;-70
2022/03/01 03:12:08;;;;;;;18.70;8.07;;;2.70;89.60;;;;;;5013810;28;20379;-71
2022/03/01 03:14:35;;;;;;;24.45;8.63;;;2.80;88.80;;;;;;5030776;28;20347;-71
2022/03/01 03:17:01;;;;;;;20.92;8.55;;;2.70;87.10;;;;;;5030808;28;20033;-71
2022/03/01 03:19:26;;;;;;;22.73;8.07;;;2.60;87.50;;;;;;5030824;28;20129;-71
2022/03/01 03:21:52;;;;;;;17.92;8.30;;;2.50;88.40;;;;;;5030594;28;20021;-71
2022/03/01 03:24:18;;;;;;;22.75;8.02;;;2.50;88.30;;;;;;5031065;28;20029;-71
2022/03/01 03:26:43;;;;;;;19.67;8.90;;;2.50;88.50;;;;;;5030262;28;20670;-71
2022/03/01 03:29:10;;;;;;;22.67;9.20;;;2.40;88.20;;;;;;5030670;28;20117;-71
2022/03/01 03:31:37;;;;;;;21.33;8.27;;;2.40;87.70;;;;;;5030595;28;20033;-71
2022/03/01 03:34:08;;;;;;;22.60;8.52;;;2.50;86.80;;;;;;5012843;28;20108;-71
2022/03/01 03:36:35;;;;;;;20.52;8.63;;;2.50;87.70;;;;;;5031157;28;20060;-71
2022/03/01 03:39:03;;;;;;;22.70;8.68;;;2.50;87.60;;;;;;5013114;28;20034;-71
2022/03/01 03:41:28;;;;;;;;;;;2.60;86.90;;;;;;5030518;28;20102;-71
2022/03/01 03:43:54;;;;;;;19.52;7.78;;;2.60;86.80;;;;;;5030426;28;20351;-71
2022/03/01 03:46:20;;;;;;;22.95;7.60;;;2.60;86.60;;;;;;5030367;28;20352;-71
2022/03/01 03:48:46;;;;;;;21.42;8.93;;;2.60;87.10;;;;;;5030196;28;20435;-71
2022/03/01 03:51:12;;;;;;;18.70;7.72;;;2.70;88.50;;;;;;5030733;28;20458;-71
2022/03/01 03:53:38;;;;;;;18.85;8.40;;;2.50;89.10;;;;;;5030232;28;20033;-71
2022/03/01 03:56:06;;;;;;;19.05;8.35;;;2.50;89.40;;;;;;5012562;28;20029;-71
2022/03/01 03:58:32;;;;;;;18.67;8.35;;;2.60;88.40;;;;;;5030133;28;20462;-71
2022/03/01 04:00:57;;;;;;;22.60;8.18;;;2.70;87.60;;;;;;5030099;28;20043;-71
2022/03/01 04:03:23;;;;;;;21.13;8.32;;;2.70;88.60;;;;;;5030639;28;20021;-71
2022/03/01 04:05:50;;;;;;;19.98;7.60;;;2.60;88.20;;;;;;5030399;28;20478;-71
2022/03/01 04:08:16;;;;;;;20.33;8.30;;;2.60;88.10;;;;;;5030279;28;20531;-71
2022/03/01 04:10:42;;;;;;;18.80;8.00;;;2.50;87.70;;;;;;5030127;28;20029;-71
2022/03/01 04:13:08;;;;;;;22.30;9.18;;;2.60;88.20;;;;;;5012557;28;20057;-72
2022/03/01 04:15:33;;;;;;;21.40;8.35;;;2.50;87.70;;;;;;5030555;28;20076;-71
2022/03/01 04:17:59;;;;;;;23.27;9.07;;;2.50;87.70;;;;;;5030205;28;20363;-74
2022/03/01 04:20:25;;;;;;;22.20;9.05;;;2.50;87.10;;;;;;5029969;28;20061;-71
2022/03/01 04:22:50;;;;;;;23.83;9.40;;;2.60;87.40;;;;;;5030109;28;20034;-71
2022/03/01 04:25:16;;;;;;;21.50;8.68;;;2.60;87.30;;;;;;5029842;28;20081;-70
2022/03/01 04:27:42;;;;;;;22.83;9.13;;;2.50;87.70;;;;;;5029871;28;20032;-70
2022/03/01 04:30:08;;;;;;;20.25;9.40;;;2.50;88.00;;;;;;5030258;28;20022;-70
2022/03/01 04:32:34;;;;;;;24.17;9.27;;;2.50;87.50;;;;;;5012402;28;20034;-70
2022/03/01 04:35:02;;;;;;;20.42;8.40;;;2.60;87.70;;;;;;5029798;28;20033;-70
2022/03/01 04:37:27;;;;;;;23.38;8.80;;;2.60;88.00;;;;;;5029752;28;20380;-71
2022/03/01 04:39:53;;;;;;;28.27;10.23;;;2.60;87.70;;;;;;5029786;28;20108;-70
2022/03/01 04:42:19;;;;;;;22.15;10.10;;;2.60;88.00;;;;;;5012774;28;20060;-70
2022/03/01 04:44:44;;;;;;;22.92;9.73;;;2.50;87.30;;;;;;5029786;28;20101;-73
2022/03/01 04:47:10;;;;;;;25.70;9.77;;;2.50;88.20;;;;;;5029791;28;20030;-71
2022/03/01 04:49:36;;;;;;;20.33;9.25;;;2.60;88.00;;;;;;5029826;28;20068;-71
2022/03/01 04:52:01;;;;;;;25.52;10.63;;;2.50;88.40;;;;;;5029774;28;20036;-70
2022/03/01 04:54:27;;;;;;;26.83;10.13;;;2.50;88.20;;;;;;5016020;28;20026;-71
2022/03/01 04:56:52;;;;;;;24.58;9.65;;;2.50;88.00;;;;;;5033468;28;20041;-70
2022/03/01 04:59:18;;;;;;;24.80;10.57;;;2.50;87.90;;;;;;5033723;28;20029;-71
2022/03/01 05:01:44;;;;;;;22.90;9.75;;;2.60;88.30;;;;;;5015827;28;20202;-70
2022/03/01 05:04:09;;;;;;;24.90;10.48;;;2.60;88.10;;;;;;5033298;28;20323;-69
2022/03/01 05:06:35;;;;;;;24.25;10.23;;;2.60;88.00;;;;;;5015418;28;20447;-70
2022/03/01 05:09:01;;;;;;;25.17;9.93;;;2.70;88.10;;;;;;5033526;28;20022;-70
2022/03/01 05:11:26;;;;;;;29.92;11.88;;;2.60;87.90;;;;;;5033026;28;20033;-70
2022/03/01 05:13:52;;;;;;;22.17;9.70;;;2.60;87.70;;;;;;5032868;28;20038;-71
2022/03/01 05:16:17;;;;;;;27.48;10.85;;;2.60;87.90;;;;;;5032834;28;20040;-72
2022/03/01 05:18:43;;;;;;;22.70;10.23;;;2.70;87.90;;;;;;5033030;28;20075;-70
2022/03/01 05:21:08;;;;;;;31.85;10.88;;;2.60;88.00;;;;;;5033371;28;20060;-71
2022/03/01 05:23:34;;;;;;;26.70;10.85;;;2.70;87.80;;;;;;5033032;28;20370;-70
2022/03/01 05:26:00;;;;;;;28.55;11.38;;;2.60;87.70;;;;;;5032738;28;20103;-71
2022/03/01 05:28:25;;;;;;;27.05;11.25;;;2.60;87.70;;;;;;5033157;28;20018;-70
2022/03/01 05:30:51;;;;;;;29.08;11.13;;;2.70;87.50;;;;;;5032826;28;20026;-70
2022/03/01 05:33:16;;;;;;;25.80;10.95;;;2.70;87.50;;;;;;5033062;28;20032;-70
2022/03/01 05:35:44;;;;;;;28.55;11.35;;;2.70;87.40;;;;;;5032452;28;20084;-71
2022/03/01 05:38:10;;;;;;;31.60;10.65;;;2.70;87.50;;;;;;5032624;28;20353;-71
2022/03/01 05:40:37;;;;;;;30.88;11.90;;;2.80;87.50;;;;;;5032415;28;20482;-71
2022/03/01 05:43:05;;;;;;;31.98;10.40;;;2.70;87.30;;;;;;5032480;28;20037;-70
2022/03/01 05:45:30;;;;;;;26.83;11.27;;;2.70;87.30;;;;;;5032882;28;20129;-72
2022/03/01 05:47:57;;;;;;;31.17;11.50;;;2.70;87.40;;;;;;5032354;28;20117;-70
2022/03/01 05:50:23;;;;;;;25.92;10.93;;;2.70;87.30;;;;;;5032183;28;20044;-70
2022/03/01 05:52:50;;;;;;;26.33;10.80;;;2.70;87.30;;;;;;5032257;28;20030;-71
2022/03/01 05:55:16;;;;;;;26.23;9.48;;;2.70;87.40;;;;;;5032060;28;20463;-70
2022/03/01 05:57:42;;;;;;;26.63;10.68;;;2.70;87.30;;;;;;5032054;28;20331;-71
2022/03/01 06:00:14;;;;;;;29.23;11.65;;;2.70;87.20;;;;;;5032644;28;20025;-71
2022/03/01 06:02:41;;;;;;;30.75;11.32;;;2.70;87.30;;;;;;5032104;28;20033;-70
2022/03/01 06:05:07;;;;;;;26.67;11.90;;;2.80;87.10;;;;;;5031639;28;20025;-71
2022/03/01 06:07:32;;;;;;;26.55;11.23;;;2.80;86.90;;;;;;5032138;28;20025;-70
2022/03/01 06:09:58;;;;;;;26.52;11.13;;;2.80;86.80;;;;;;5031833;28;20040;-71
2022/03/01 06:12:23;;;;;;;26.23;10.88;;;2.80;86.90;;;;;;5032452;28;20017;-71
2022/03/01 06:14:49;;;;;;;29.33;11.77;;;2.80;87.00;;;;;;5031870;28;20037;-72
2022/03/01 06:17:15;;;;;;;29.67;11.57;;;2.80;86.90;;;;;;5031765;28;20053;-71
2022/03/01 06:19:40;;;;;;;30.50;10.43;;;2.80;86.80;;;;;;5032855;28;20033;-71
2022/03/01 06:22:06;;;;;;;32.00;11.98;;;2.90;86.60;;;;;;5031493;28;20045;-71
2022/03/01 06:24:33;;;;;;;30.55;11.80;;;2.90;86.40;;;;;;5032079;28;20046;-70
2022/03/01 06:26:59;;;;;;;31.10;12.20;;;2.90;86.30;;;;;;5031567;28;20041;-70
2022/03/01 06:29:24;;;;;;;34.80;13.05;;;2.80;86.40;;;;;;5031365;28;20880;-70
2022/03/01 06:31:50;;;;;;;30.02;12.40;;;2.80;86.30;;;;;;5031343;28;20061;-71
2022/03/01 06:34:16;;;;;;;26.17;10.77;;;2.90;86.30;;;;;;5027237;28;20390;-70
2022/03/01 06:36:41;;;;;;;33.92;13.13;;;2.90;86.10;;;;;;4987510;28;20484;-70
2022/03/01 06:39:07;;;;;;;27.83;10.90;;;3.00;86.20;;;;;;4973068;28;20026;-71
2022/03/01 06:41:32;;;;;;;23.40;10.32;;;3.00;86.00;;;;;;4971425;28;20718;-70
2022/03/01 06:43:58;;;;;;;26.98;10.60;;;3.00;85.50;;;;;;4972606;28;20476;-70
2022/03/01 06:46:25;;;;;;;31.20;11.80;;;3.10;85.40;;;;;;4971191;28;20059;-70
2022/03/01 06:48:50;;;;;;;27.27;11.00;;;3.20;85.30;;;;;;4972155;28;20035;-70
2022/03/01 06:51:16;;;;;;;27.65;10.27;;;3.20;85.30;;;;;;4972883;28;20144;-70
2022/03/01 06:53:41;;;;;;;27.00;10.45;;;3.20;85.00;;;;;;4972289;28;20093;-72
2022/03/01 06:56:07;;;;;;;24.33;9.73;;;3.30;85.00;;;;;;4972323;28;20051;-71
2022/03/01 06:58:33;;;;;;;31.38;11.40;;;3.20;84.90;;;;;;4972435;28;20191;-72
2022/03/01 07:01:01;;;;;;;27.88;10.68;;;3.20;84.70;;;;;;4972454;28;20369;-70
2022/03/01 07:03:27;;;;;;;23.45;10.32;;;3.30;84.60;;;;;;4972754;28;20015;-70
2022/03/01 07:05:53;;;;;;;23.35;9.82;;;3.30;84.50;;;;;;4972335;28;20420;-69
2022/03/01 07:08:20;;;;;;;25.23;10.07;;;3.40;84.40;;;;;;4972443;28;20031;-72
2022/03/01 07:10:47;;;;;;;27.45;10.80;;;3.40;84.20;;;;;;4972305;28;20027;-70
2022/03/01 07:13:13;;;;;;;26.80;9.75;;;3.40;84.20;;;;;;4970907;28;20027;-71
2022/03/01 07:15:38;;;;;;;27.85;11.07;;;3.40;84.10;;;;;;4971532;28;20031;-72
2022/03/01 07:18:04;;;;;;;26.75;10.55;;;3.50;83.70;;;;;;4972491;28;20030;-72
2022/03/01 07:20:30;;;;;;;23.50;10.68;;;3.50;83.40;;;;;;4971989;28;20034;-73
2022/03/01 07:22:56;;;;;;;24.42;10.55;;;3.50;83.30;;;;;;4971921;28;20034;-72
2022/03/01 07:25:22;;;;;;;30.50;10.43;;;3.60;83.50;;;;;;4986836;28;20469;-73
2022/03/01 07:27:49;;;;;;;23.00;10.02;;;3.60;83.40;;;;;;4972038;28;20035;-72
2022/03/01 07:30:16;;;;;;;28.75;9.98;;;3.60;83.00;;;;;;4971341;28;20381;-72
2022/03/01 07:32:42;;;;;;;26.75;10.60;;;3.60;82.90;;;;;;4971952;28;20042;-72
2022/03/01 07:35:08;;;;;;;21.83;9.63;;;3.70;82.80;;;;;;4971036;28;20421;-74
2022/03/01 07:37:34;;;;;;;29.75;10.35;;;3.70;82.80;;;;;;4989993;28;20358;-73
2022/03/01 07:40:01;;;;;;;32.85;10.63;;;3.70;82.90;;;;;;4990875;28;20042;-75
2022/03/01 07:42:27;;;;;;;27.95;11.43;;;3.70;82.80;;;;;;4991564;28;20100;-74
2022/03/01 07:44:52;;;;;;;30.88;11.68;;;3.80;82.50;;;;;;4990866;28;20464;-73
2022/03/01 07:47:18;;;;;;;23.55;11.48;;;3.90;82.60;;;;;;4990107;28;20058;-73
2022/03/01 07:49:43;;;;;;;31.17;13.57;;;3.90;82.50;;;;;;4990809;28;20034;-74
2022/03/01 07:52:09;;;;;;;29.02;11.00;;;3.90;82.50;;;;;;4991089;28;20114;-72
2022/03/01 07:54:35;;;;;;;24.33;10.15;;;4.00;82.30;;;;;;4990813;28;20030;-73
2022/03/01 07:57:01;;;;;;;25.92;10.82;;;4.00;82.00;;;;;;4991403;28;20030;-73
2022/03/01 07:59:26;;;;;;;24.20;9.70;;;4.10;81.90;;;;;;4973246;28;20045;-74
2022/03/01 08:01:52;;;;;;;22.05;10.48;;;4.20;81.80;;;;;;4990711;28;20040;-74
2022/03/01 08:04:19;;;;;;;29.63;10.40;;;4.10;81.50;;;;;;4990707;28;20053;-73
2022/03/01 08:06:45;;;;;;;22.88;10.25;;;4.20;81.40;;;;;;4990617;28;20029;-74
2022/03/01 08:09:10;;;;;;;31.58;10.75;;;4.30;81.20;;;;;;4974244;28;20018;-74
2022/03/01 08:11:36;;;;;;;25.58;10.35;;;4.40;81.40;;;;;;4991230;28;20114;-72
2022/03/01 08:14:02;;;;;;;29.10;10.57;;;4.50;81.30;;;;;;4973601;28;20543;-73
2022/03/01 08:16:27;;;;;;;25.02;10.30;;;4.50;81.10;;;;;;4991374;28;20030;-75
2022/03/01 08:18:53;;;;;;;23.08;9.55;;;4.60;80.70;;;;;;4991298;28;20027;-73
2022/03/01 08:21:19;;;;;;;21.13;9.50;;;4.60;80.10;;;;;;4991779;28;20085;-74
2022/03/01 08:23:44;;;;;;;24.15;10.30;;;4.70;79.80;;;;;;4991529;28;20356;-74
2022/03/01 08:26:10;;;;;;;26.80;11.02;;;4.70;79.50;;;;;;4990667;28;20042;-75
2022/03/01 08:28:35;;;;;;;24.00;9.60;;;4.90;79.50;;;;;;4994640;28;20031;-74
2022/03/01 08:31:01;;;;;;;23.23;10.57;;;4.90;79.50;;;;;;4994698;28;20034;-75
2022/03/01 08:33:27;;;;;;;24.65;10.52;;;5.10;79.10;;;;;;4994892;28;20390;-74
2022/03/01 08:35:55;;;;;;;25.13;10.38;;;5.10;78.40;;;;;;4994323;28;20059;-75
2022/03/01 08:38:21;;;;;;;22.65;9.88;;;5.20;78.60;;;;;;4994553;28;20030;-75
2022/03/01 08:40:47;;;;;;;22.70;10.27;;;5.30;78.10;;;;;;4977244;28;20035;-73
2022/03/01 08:43:13;;;;;;;22.40;9.20;;;5.40;77.50;;;;;;4994313;28;20468;-77
2022/03/01 08:45:40;;;;;;;22.65;9.95;;;5.40;77.30;;;;;;4977111;28;20030;-74
2022/03/01 08:48:05;;;;;;;28.08;11.32;;;5.50;76.90;;;;;;4994774;28;20097;-74
2022/03/01 08:50:31;;;;;;;28.25;12.13;;;5.60;76.80;;;;;;4994072;28;20042;-73
2022/03/01 08:52:57;;;;;;;22.02;9.70;;;5.70;76.90;;;;;;4976598;28;20431;-73
2022/03/01 08:55:23;;;;;;;23.88;10.20;;;5.80;76.00;;;;;;4994239;28;20460;-72
2022/03/01 08:57:49;;;;;;;25.98;10.25;;;5.90;75.80;;;;;;4976681;28;20187;-74
2022/03/01 09:00:15;;;;;;;23.27;10.05;;;7.00;75.00;;;;;;4994535;28;20049;-74
2022/03/01 09:02:41;;;;;;;24.58;8.73;;;8.70;71.30;;;;;;4993976;28;20549;-75
2022/03/01 09:05:07;;;;;;;24.48;9.48;;;10.30;66.50;;;;;;4993898;28;20030;-74
2022/03/01 09:07:33;;;;;;;20.73;9.70;;;11.70;62.80;;;;;;4993774;28;20054;-72
2022/03/01 09:09:59;;;;;;;20.40;9.32;;;13.10;60.20;;;;;;4992589;28;20027;-70
2022/03/01 09:12:25;;;;;;;19.40;8.82;;;13.90;55.50;;;;;;4994277;28;20118;-72
2022/03/01 09:14:51;;;;;;;20.08;9.48;;;13.80;53.60;;;;;;4993497;28;20060;-71
2022/03/01 09:17:16;;;;;;;19.77;9.40;;;14.30;53.40;;;;;;4993556;28;20358;-73
2022/03/01 09:19:42;;;;;;;21.05;10.07;;;14.80;50.90;;;;;;4976688;28;20038;-71
2022/03/01 09:22:08;;;;;;;21.63;10.80;;;15.10;50.80;;;;;;4993411;28;20096;-71
2022/03/01 09:24:33;;;;;;;18.80;8.50;;;14.40;50.00;;;;;;4977744;28;20030;-72
2022/03/01 09:27:01;;;;;;;19.02;9.52;;;14.60;49.60;;;;;;4993891;28;20042;-72
2022/03/01 09:29:28;;;;;;;17.25;8.68;;;14.90;48.60;;;;;;4993654;28;20357;-71
2022/03/01 09:31:54;;;;;;;23.27;9.13;;;15.10;48.60;;;;;;4992688;28;20373;-71
2022/03/01 09:34:20;;;;;;;16.80;9.13;;;15.90;47.70;;;;;;4993992;28;20026;-72
2022/03/01 09:36:46;;;;;;;15.27;8.73;;;16.30;47.10;;;;;;4994242;28;20397;-73
2022/03/01 09:39:11;;;;;;;20.42;9.32;;;16.10;47.10;;;;;;4994576;28;20472;-74
2022/03/01 09:41:39;;;;;;;17.35;8.98;;;15.70;45.50;;;;;;4993911;28;20030;-75
2022/03/01 09:44:06;;;;;;;17.53;8.93;;;15.70;45.40;;;;;;4993956;28;20120;-71
2022/03/01 09:46:32;;;;;;;19.03;9.40;;;15.90;45.60;;;;;;4992756;28;20272;-73
2022/03/01 09:48:58;;;;;;;16.25;8.73;;;16.20;45.70;;;;;;4993766;28;20128;-71
2022/03/01 09:51:24;;;;;;;21.02;8.68;;;16.60;44.20;;;;;;4994584;28;20077;-72
2022/03/01 09:53:51;;;;;;;16.77;9.35;;;17.20;44.20;;;;;;4993997;28;20461;-71
2022/03/01 09:56:18;;;;;;;20.85;9.38;;;17.50;44.30;;;;;;4993651;28;20073;-71
2022/03/01 09:58:49;;;;;;;20.02;11.02;;;17.60;42.60;;;;;;4994197;28;20058;-74
2022/03/01 10:01:16;;;;;;;18.13;8.88;;;17.90;42.30;;;;;;4976146;28;20037;-72
2022/03/01 10:03:48;;;;;;;18.77;8.90;;;17.60;42.80;;;;;;4994015;28;20496;-72
2022/03/01 10:06:15;;;;;;;18.60;8.98;;;16.70;41.90;;;;;;4994086;28;20459;-74
2022/03/01 10:08:41;;;;;;;16.83;9.37;;;15.90;42.70;;;;;;4993830;28;20053;-73
2022/03/01 10:11:10;;;;;;;16.05;8.65;;;15.20;42.90;;;;;;4992582;28;20037;-73
2022/03/01 10:13:38;;;;;;;18.10;9.05;;;15.40;43.50;;;;;;4993498;28;20396;-73
2022/03/01 10:16:09;;;;;;;14.90;8.07;;;15.20;43.30;;;;;;4993367;28;20053;-73
2022/03/01 10:18:41;;;;;;;18.25;9.80;;;15.00;43.90;;;;;;4994124;28;20169;-73
2022/03/01 10:21:12;;;;;;;16.95;8.52;;;14.70;43.80;;;;;;4993362;28;20448;-72
2022/03/01 10:23:41;;;;;;;19.42;9.63;;;14.10;43.90;;;;;;4994503;28;20126;-75
2022/03/01 10:26:25;;;;;;;21.35;9.35;;;14.40;44.60;;;;;;4993665;28;20034;-74
2022/03/01 10:28:54;;;;;;;14.88;7.97;;;15.50;44.30;;;;;;4992907;28;20081;-69
2022/03/01 10:31:24;;;;;;;;;;;16.50;43.90;;;;;;4993261;28;20181;-74
2022/03/01 10:34:03;;;;;;;18.88;9.27;;;17.50;43.00;;;;;;4992563;28;19906;-73
2022/03/01 10:36:30;;;;;;;15.85;8.77;;;17.70;42.10;;;;;;4993439;28;20064;-73
2022/03/01 10:39:05;;;;;;;16.37;8.97;;;18.10;41.90;;;;;;4991484;28;20065;-72
2022/03/01 10:41:34;;;;;;;19.08;9.48;;;18.80;41.20;;;;;;4993494;28;20153;-73
2022/03/01 10:44:03;;;;;;;16.17;9.75;;;19.00;40.20;;;;;;4992556;28;20034;-74
2022/03/01 10:46:30;;;;;;;20.08;9.15;;;18.90;40.20;;;;;;4992884;28;20046;-73
2022/03/01 10:49:11;;;;;;;18.02;8.75;;;19.40;40.00;;;;;;4992218;28;20054;-71
2022/03/01 10:51:50;;;;;;;17.95;8.70;;;19.00;39.20;;;;;;4991839;28;20018;-71
2022/03/01 10:54:24;;;;;;;16.55;9.40;;;18.90;38.80;;;;;;4994037;28;20023;-73
2022/03/01 10:56:53;;;;;;;15.65;8.75;;;18.90;38.80;;;;;;4992872;28;20057;-72
2022/03/01 10:59:20;;;;;;;18.45;9.00;;;19.30;39.20;;;;;;4993012;28;20026;-71
2022/03/01 11:01:46;;;;;;;21.30;10.57;;;19.10;38.00;;;;;;4992368;28;20116;-71
2022/03/01 11:04:11;;;;;;;19.15;10.63;;;19.40;39.00;;;;;;4992210;28;20483;-70
2022/03/01 11:06:37;;;;;;;17.35;10.70;;;19.50;38.30;;;;;;4992171;28;20034;-71
2022/03/01 11:09:05;;;;;;;17.02;8.95;;;19.40;37.80;;;;;;4992807;28;20092;-73
2022/03/01 11:11:31;;;;;;;15.60;8.95;;;19.40;37.80;;;;;;4992487;28;20035;-74
2022/03/01 11:13:57;;;;;;;16.30;8.38;;;19.50;38.20;;;;;;4992065;28;20561;-73
2022/03/01 11:16:22;;;;;;;15.63;9.30;;;20.10;39.10;;;;;;4991752;28;20035;-72
2022/03/01 11:18:54;;;;;;;18.17;9.20;;;20.50;37.40;;;;;;4991482;28;20109;-74
2022/03/01 11:21:21;;;;;;;15.65;9.13;;;20.50;37.00;;;;;;4991841;28;20022;-73
2022/03/01 11:23:48;;;;;;;15.80;9.30;;;20.90;36.50;;;;;;4991561;28;20166;-73
2022/03/01 11:26:16;;;;;;;23.85;10.00;;;20.30;36.60;;;;;;4991233;28;20283;-72
2022/03/01 11:28:54;;;;;;;19.88;9.50;;;19.90;37.30;;;;;;4991489;28;20030;-72
2022/03/01 11:31:21;;;;;;;16.65;10.00;;;19.60;37.30;;;;;;4991034;28;20049;-73
2022/03/01 11:33:58;;;;;;;16.98;10.07;;;19.40;37.20;;;;;;4990933;28;20049;-73
2022/03/01 11:36:29;;;;;;;21.92;11.13;;;19.40;37.40;;;;;;4991256;28;20137;-73
2022/03/01 11:39:06;;;;;;;17.33;8.63;;;18.80;37.30;;;;;;4991011;28;20042;-73
2022/03/01 11:41:44;;;;;;;16.60;9.05;;;18.20;37.60;;;;;;4990996;28;20080;-73
2022/03/01 11:44:10;;;;;;;15.43;9.35;;;17.70;38.20;;;;;;4991042;28;20038;-72
2022/03/01 11:46:43;;;;;;;16.63;8.75;;;17.10;38.40;;;;;;4991068;28;20034;-72
2022/03/01 11:49:11;;;;;;;16.00;8.60;;;16.50;38.90;;;;;;4990769;28;20700;-72
2022/03/01 11:51:42;;;;;;;18.80;9.23;;;15.90;39.80;;;;;;4990933;28;20073;-72
2022/03/01 11:54:13;;;;;;;16.70;8.90;;;15.70;40.30;;;;;;4991230;28;20445;-74
2022/03/01 11:56:40;;;;;;;19.02;8.95;;;15.10;40.60;;;;;;4991063;28;20120;-73
2022/03/01 11:59:11;;;;;;;14.15;8.07;;;15.00;41.10;;;;;;4990780;28;20038;-74
2022/03/01 12:01:38;;;;;;;18.75;9.68;;;14.70;41.40;;;;;;4991189;28;20034;-72
2022/03/01 12:04:06;;;;;;;17.13;8.73;;;14.40;41.90;;;;;;4995070;28;20526;-73
2022/03/01 12:06:34;;;;;;;19.42;10.10;;;14.30;42.60;;;;;;4995317;28;20034;-71
2022/03/01 12:09:03;;;;;;;17.10;8.82;;;14.20;42.90;;;;;;5006592;28;20034;-72
2022/03/01 12:11:41;;;;;;;19.45;8.30;;;14.00;42.80;;;;;;4987269;28;20034;-73
2022/03/01 12:14:08;;;;;;;;;;;13.70;43.10;;;;;;5015611;28;20037;-70
2022/03/01 12:16:35;;;;;;;16.60;9.20;;;13.50;43.60;;;;;;5014586;28;19917;-72
2022/03/01 12:19:18;;;;;;;19.20;9.35;;;13.40;44.10;;;;;;4997835;28;20391;-72
2022/03/01 12:21:51;;;;;;;18.48;8.88;;;13.30;44.80;;;;;;5014872;28;20037;-75
2022/03/01 12:24:19;;;;;;;17.15;8.52;;;13.30;44.50;;;;;;5016377;28;20022;-73
2022/03/01 12:26:49;;;;;;;18.52;8.65;;;13.20;44.80;;;;;;5014788;28;20123;-73
2022/03/01 12:29:18;;;;;;;17.98;8.95;;;13.30;45.00;;;;;;5014617;28;20096;-73
2022/03/01 12:32:00;;;;;;;17.63;9.32;;;13.40;44.90;;;;;;5015424;28;20044;-74
2022/03/01 12:34:30;;;;;;;18.85;9.10;;;13.30;44.90;;;;;;5014554;28;20034;-72
2022/03/01 12:36:58;;;;;;;21.92;9.90;;;13.30;44.90;;;;;;5015725;28;20429;-76
2022/03/01 12:39:27;;;;;;;20.20;9.18;;;13.10;44.90;;;;;;4998536;28;20037;-74
2022/03/01 12:41:54;;;;;;;20.95;9.20;;;12.80;45.10;;;;;;5014943;28;20121;-73